Terminal Aerodrome Forecast
Issued by NWS Brownsville, TX

Home | Current Version | Previous Version | Text Only | Print | Product List | Glossary On
Versions: 1 2 3 4 5 6 7 8 9 10 11 12 13 14 15 16 17 18 19 20 21
868
FTUS44 KBRO 311720
TAFHRL
TAF
KHRL 311720Z 3118/0118 35007KT P6SM VCSH FEW009 BKN080
      TEMPO 3118/3121 6SM -SHRA SCT030 BKN045
     FM312100 05012KT P6SM VCTS SCT040 BKN050CB
     FM010000 06010KT P6SM BKN250
      TEMPO 0109/0112 4SM BR=

USA.gov is the U.S. government's official web portal to all federal, state and local government web resources and services.